Boulder City, Nevada Weather observations

Data are for observation ending at time listed.
 Day   Time    Ave.   Ave.  Ave.  Vector   Max.   Stn.    Total    Solar   Ave.  
  of    of     Air    Rel.  Wind   Wind    Wind   Baro.  Precip.   Rad.    Soil  
Year   Day     Temp.  Hum.  Speed  Dir.    Gust   Pres.                    Temp. 
2026   (PST)    F      %     mph   deg.    mph     mb.     in.     W/m2     F   
------------------------------------------------------------------------------
 129   14:10   99.3     6    2.6    15      7.5   928.5    0.00     758    93.1
 129   14:20   99.0     6    4.6     9     11.0   928.3    0.00     732    93.4
 129   14:30   98.4     6    2.8    15      6.6   928.1    0.00     708    93.6
 129   14:40   98.7     6    3.9    58      7.6   927.9    0.00     682    93.9
 129   14:50   99.6     6    2.2    47      7.7   927.8    0.00     652    94.1
 129   15:00   99.6     6    3.7    40      8.8   927.7    0.00     621    94.4
 129   15:10   99.7     6    4.6   121     10.4   927.5    0.00     584    94.6
 129   15:20   99.7     6    3.3   140     10.1   927.3    0.00     556    94.7
 129   15:30   99.5     6    3.2    32      8.5   927.2    0.00     528    95.0
 129   15:40   99.3     6    4.4    46      7.8   927.1    0.00     496    95.1
 129   15:50   99.4     6    3.2    24      6.6   927.1    0.00     464    95.3
 129   16:00   99.1     6    4.1    14      8.9   927.0    0.00     431    95.5
 129   16:10   99.2     6    3.6    12     10.4   927.0    0.00     397    95.5
 129   16:20   98.8     6    4.4     5      7.7   927.0    0.00     365    95.6
 129   16:30   98.6     6    4.0    24      8.0   926.8    0.00     332    95.7
 129   16:40   98.4     6    4.3    13      9.5   926.7    0.00     297    95.8
 129   16:50   98.4     6    3.5    18      8.3   926.7    0.00     263    95.9
 129   17:00   97.8     6    2.9    10      6.4   926.6    0.00     233    95.9
 129   17:10   97.5     6    2.1     6      4.8   926.5    0.00     203    95.9
 129   17:20   96.5     7    2.7     8      5.3   926.3    0.00     174    95.9
 129   17:30   96.0     7    2.6    28      6.9   926.2    0.00     145    95.9
 129   17:40   95.7     7    3.0    16      6.2   926.1    0.00     117    95.9
 129   17:50   95.3     7    2.9     9      5.2   926.1    0.00      81    95.9
 129   18:00   94.9     7    3.0     7      4.8   926.1    0.00      27    95.8
 129   18:10   94.1     8    2.3   359      3.7   926.0    0.00      22    95.7
 129   18:20   93.4     8    1.9     3      3.5   926.0    0.00      17    95.7
 129   18:30   92.8     8    1.5   342      2.4   926.0    0.00      10    95.7
 129   18:40   91.9     8    0.9   310      1.9   926.0    0.00       4    95.6
 129   18:50   90.5     8    1.4   297      2.2   926.0    0.00       1    95.6
 129   19:00   89.6     8    0.9   293      1.5   926.0    0.00       0    95.5
 129   19:10   89.2     8    1.2   228      2.0   926.0    0.00       0    95.4
 129   19:20   88.8     9    1.9   238      2.6   926.0    0.00       0    95.3
 129   19:30   88.0     9    1.5   263      2.4   926.1    0.00       0    95.1
 129   19:40   87.3     9    1.2   276      2.1   926.1    0.00       0    95.1
 129   19:50   86.7     9    2.0   202      3.0   926.2    0.00       0    94.9
 129   20:00   87.0     9    1.8   206      3.2   926.4    0.00       0    94.8
 129   20:10   87.4     9    1.7   240      3.4   926.5    0.00       0    94.7
 129   20:20   86.6     9    2.2   224      4.0   926.6    0.00       0    94.6
 129   20:30   86.1     9    2.9   209      4.3   926.7    0.00       0    94.4
 129   20:40   86.4     9    2.7   224      4.7   926.8    0.00       0    94.3
 129   20:50   86.6     9    2.8   205      4.5   926.9    0.00       0    94.1
 129   21:00   86.1     9    2.9   197      4.2   926.9    0.00       0    94.0
 129   21:10   85.6     9    2.3   206      3.1   926.8    0.00       0    93.8
 129   21:20   84.2    10    2.9   214      4.2   926.8    0.00       0    93.7
 129   21:30   83.5    10    3.8   207      4.8   926.8    0.00       0    93.5
 129   21:40   83.4    10    3.4   208      5.0   926.8    0.00       0    93.4
 129   21:50   83.5    10    2.6   209      3.4   926.7    0.00       0    93.2
 129   22:00   83.9    10    2.1   199      3.1   926.8    0.00       0    93.0
 129   22:10   83.6    10    2.5   196      3.8   926.8    0.00       0    92.9
 129   22:20   83.1    10    3.6   207      4.7   926.9    0.00       0    92.7
 129   22:30   84.4    10    4.2   219      6.0   926.9    0.00       0    92.5
 129   22:40   83.3    10    2.6   224      3.8   926.9    0.00       0    92.3
 129   22:50   83.0    10    2.0    17     10.1   927.2    0.00       0    92.1
 129   23:00   84.8    10    2.3    11      6.3   927.2    0.00       0    92.0
 129   23:10   85.1     9    1.6   268      3.3   927.3    0.00       0    91.8
 129   23:20   83.9     9    1.5   267      3.1   927.2    0.00       0    91.7
 129   23:30   84.0     9    2.0   292      5.6   927.2    0.00       0    91.5
 129   23:40   84.5     9    1.6   290      4.4   927.2    0.00       0    91.4
 129   23:50   84.6     9    1.3    12      3.4   927.2    0.00       0    91.2
 130    0:00   83.7    10    1.0   271      2.3   927.3    0.00       0    91.1
 130    0:10   81.6    10    0.6    61      3.9   927.3    0.00       0    90.9
 130    0:20   81.1    11    1.2    29      3.7   927.3    0.00       0    90.8
 130    0:30   81.5    11    1.8   358      3.4   927.4    0.00       0    90.6
 130    0:40   81.2    11    0.6    22      2.5   927.4    0.00       0    90.4
 130    0:50   80.3    11    1.3     2      2.6   927.5    0.00       0    90.3
 130    1:00   80.6    11    1.9   352      3.0   927.6    0.00       0    90.2
 130    1:10   81.8    12    2.4     1      4.5   927.7    0.00       0    90.0
 130    1:20   82.1    12    1.5    10      3.9   927.9    0.00       0    89.9
 130    1:30   81.9    11    2.9     4      6.1   928.0    0.00       0    89.7
 130    1:40   83.0    11    3.6   355      7.8   928.1    0.00       0    89.5
 130    1:50   83.6    10    5.2     1      9.8   928.3    0.00       0    89.4
 130    2:00   83.8    10    5.4   360     10.4   928.5    0.00       0    89.2
 130    2:10   83.5    10    4.5     1      9.0   928.6    0.00       0    89.0
 130    2:20   83.6     9    5.7   358     11.2   928.7    0.00       0    88.9
 130    2:30   83.2     9    4.4   347      9.9   928.8    0.00       0    88.7
 130    2:40   82.6    10    3.9   343      6.9   928.8    0.00       0    88.6
 130    2:50   82.1    10    4.1   343      7.5   928.9    0.00       0    88.4
 130    3:00   81.8    10    3.3   344      5.7   929.0    0.00       0    88.3
 130    3:10   81.1    10    3.2   341      5.9   929.0    0.00       0    88.2
 130    3:20   81.4     9    3.6   335      6.2   929.0    0.00       0    88.1
 130    3:30   82.0     9    4.0   346      7.5   929.1    0.00       0    87.9
 130    3:40   81.6     9    2.9   354      5.9   929.1    0.00       0    87.8
 130    3:50   81.2     9    3.7   343      7.4   929.2    0.00       0    87.7
 130    4:00   80.9     9    3.5   334      7.3   929.3    0.00       0    87.6
 130    4:10   79.1     9    3.0   320      6.2   929.4    0.00       0    87.5
 130    4:20   79.0     9    3.8   331      7.7   929.4    0.00       0    87.4
 130    4:30   80.1     9    3.9   349      7.5   929.4    0.00       1    87.3
 130    4:40   80.2     9    4.3   350      7.0   929.5    0.00       3    87.2
 130    4:50   80.1     9    4.8   345      8.6   929.6    0.00       9    87.0
 130    5:00   80.1     9    5.0   346      8.6   929.8    0.00      19    86.9
 130    5:10   80.2     8    5.1   347     10.2   929.9    0.00      23    86.8
 130    5:20   80.3     8    4.5     1      8.9   930.1    0.00      28    86.7
 130    5:30   81.1     8    4.9   356      9.4   930.3    0.00      35    86.6
 130    5:40   81.7     8    6.0     3     10.1   930.4    0.00      58    86.5
 130    5:50   82.2     8    6.0     1     13.4   930.7    0.00     192    86.3
 130    6:00   82.7     7    5.9     5     12.5   930.9    0.00     226    86.2
 130    6:10   82.7     7    6.6   360     12.5   931.2    0.00     261    86.1
 130    6:20   82.8     7    6.4     5     11.4   931.5    0.00     295    85.9
 130    6:30   83.3     7    5.5     8     12.8   931.6    0.00     329    85.9
 130    6:40   83.7     7    5.8     6     12.3   931.7    0.00     363    85.8
 130    6:50   84.0     7    6.1    11     10.5   931.8    0.00     397    85.7
 130    7:00   83.9     7    7.0     4     12.3   931.9    0.00     431    85.6
 130    7:10   84.3     7    6.7     8     13.0   932.0    0.00     464    85.6
 130    7:20   85.0     7    5.8     6     11.8   932.0    0.00     497    85.5
 130    7:30   85.2     7    6.9     8     15.6   932.1    0.00     529    85.4
 130    7:40   85.8     7    7.9    10     13.4   932.1    0.00     562    85.5
 130    7:50   86.2     7    6.7     6     11.9   932.3    0.00     593    85.4
 130    8:00   86.9     7    6.9    14     14.0   932.4    0.00     622    85.5
 130    8:10   87.4     6    7.3    12     13.5   932.5    0.00     652    85.5
 130    8:20   87.7     6    7.0     8     17.2   932.5    0.00     679    85.5
 130    8:30   87.7     6    7.4     6     14.6   932.6    0.00     704    85.5
 130    8:40   88.1     6    6.6    10     15.7   932.7    0.00     730    85.6
 130    8:50   88.7     6    6.1    16     13.7   932.8    0.00     754    85.6
 130    9:00   89.3     6    5.2    14     13.0   932.9    0.00     778    85.7
 130    9:10   89.5     6    5.5     8     10.8   933.0    0.00     800    85.8
 130    9:20   90.2     6    5.5     4     11.0   933.1    0.00     800    85.9
 130    9:30   89.6     6    6.7     7     14.0   933.1    0.00     298    86.0
 130    9:40   90.4     6    6.5     0     13.4   933.1    0.00     620    86.2
 130    9:50   90.7     6    6.4     7     11.7   933.1    0.00     684    86.3
 130   10:00   91.1     6    6.3     6     12.1   933.1    0.00     846    86.5
 130   10:10   91.2     6    6.8     6     13.7   933.2    0.00     901    86.7
 130   10:20   91.2     6    6.4   359     13.0   933.1    0.00     913    86.9
 130   10:30   92.3     6    6.3     4     11.7   933.2    0.00     925    87.1
 130   10:40   93.0     6    5.7    14     10.4   933.1    0.00     931    87.3
 130   10:50   92.4     6    6.2   355     12.1   933.1    0.00     943    87.6
 130   11:00   93.2     6    5.7     6     12.4   933.0    0.00     940    87.8
 130   11:10   93.2     6    5.8     4     11.0   932.9    0.00     957    88.1
 130   11:20   93.8     6    5.5    14     10.8   932.9    0.00     955    88.4
 130   11:30   94.7     6    4.7    16      9.2   932.7    0.00     960    88.6
 130   11:40   94.7     6    5.1     4     10.6   932.6    0.00     961    88.9
 130   11:50   94.9     6    4.9    17     12.1   932.5    0.00     958    89.2
 130   12:00   94.9     6    4.9     7      9.4   932.5    0.00     954    89.4
 130   12:10   95.6     6    4.6    22      9.2   932.5    0.00     949    89.7
 130   12:20   95.8     6    2.8     4      7.7   932.4    0.00     941    90.0
 130   12:30   95.5     6    5.2     4     11.7   932.3    0.00     932    90.3
 130   12:40   95.9     6    4.6    11      9.1   932.2    0.00     921    90.6
 130   12:50   96.8     6    3.9    12      8.9   932.1    0.00     910    91.0
 130   13:00   96.7     6    5.1    14     12.5   932.0    0.00     896    91.2
 130   13:10   96.9     6    4.3    24     10.4   931.9    0.00     880    91.5
 130   13:20   97.1     6    3.4     2      8.9   931.8    0.00     863    91.8
 130   13:30   97.8     6    4.0     2      8.0   931.8    0.00     846    92.2
 130   13:40   97.8     5    3.4   354      8.2   931.7    0.00     826    92.5
 130   13:50   97.8     5    2.5   352      7.2   931.7    0.00     806    92.8
 130   14:00   98.3     5    3.9   351      8.3   931.7    0.00     787    93.2

Return to Boulder City, Nevada graphs page.


Western Regional Climate Center,wrcc@dri.edu